Time;durP1;ratioP1;P1;durP2;ratioP2;P2;SDS_P1;SDS_P2;PMS_P1;PMS_P2;Temp;Humidity;BMP_temperature;BMP_pressure;BME280_temperature;BME280_humidity;BME280_pressure;Samples;Min_cycle;Max_cycle;Signal;HPM_P1;HPM_P2
2021/12/15 00:02:21;;;;;;;46.03;18.38;;;;;;;7.10;97.92;102745.19;5024739;28;20021;-80
2021/12/15 00:04:50;;;;;;;48.30;17.77;;;;;;;7.09;97.68;102735.53;5029750;28;20500;-81
2021/12/15 00:07:17;;;;;;;40.08;17.02;;;;;;;7.09;97.85;102732.88;5034814;28;20021;-81
2021/12/15 00:09:43;;;;;;;39.90;17.20;;;;;;;7.08;97.90;102732.03;5027687;28;20063;-81
2021/12/15 00:12:13;;;;;;;42.10;16.65;;;;;;;7.10;97.85;102734.53;5029253;28;20028;-81
2021/12/15 00:14:39;;;;;;;44.40;17.17;;;;;;;7.12;98.03;102729.84;5037250;28;20075;-82
2021/12/15 00:17:04;;;;;;;37.78;16.65;;;;;;;7.11;97.84;102738.84;5035487;28;20032;-82
2021/12/15 00:19:31;;;;;;;42.00;17.67;;;;;;;7.11;97.86;102736.19;5031690;28;20029;-82
2021/12/15 00:21:57;;;;;;;37.30;17.52;;;;;;;7.12;97.79;102736.00;5049690;28;20120;-82
2021/12/15 00:24:24;;;;;;;46.72;17.73;;;;;;;7.14;97.48;102739.31;5029892;28;20033;-82
2021/12/15 00:26:50;;;;;;;38.65;17.33;;;;;;;7.16;97.63;102744.47;5029247;28;20082;-81
2021/12/15 00:29:16;;;;;;;38.92;16.55;;;;;;;7.14;97.24;102747.31;5025934;28;20025;-81
2021/12/15 00:31:44;;;;;;;42.78;17.92;;;;;;;7.15;97.32;102743.66;5047313;28;20025;-81
2021/12/15 00:34:10;;;;;;;41.95;17.65;;;;;;;7.14;97.06;102747.31;5042509;28;20044;-83
2021/12/15 00:36:36;;;;;;;36.35;16.05;;;;;;;7.12;97.53;102753.84;5034574;28;20048;-83
2021/12/15 00:39:04;;;;;;;39.00;17.10;;;;;;;7.11;97.38;102736.19;5022773;28;20072;-83
2021/12/15 00:41:30;;;;;;;42.40;17.25;;;;;;;7.06;98.14;102730.56;5041347;28;20029;-82
2021/12/15 00:43:55;;;;;;;44.10;17.70;;;;;;;7.02;97.68;102727.44;5026260;28;20396;-82
2021/12/15 00:46:21;;;;;;;41.85;16.42;;;;;;;7.02;97.44;102731.94;5027354;28;20114;-82
2021/12/15 00:48:49;;;;;;;47.08;17.05;;;;;;;7.01;97.84;102741.75;5042151;28;20025;-81
2021/12/15 00:51:14;;;;;;;43.13;17.52;;;;;;;7.03;98.15;102736.25;5036064;28;20024;-81
2021/12/15 00:53:40;;;;;;;41.33;16.42;;;;;;;7.03;97.55;102729.09;5028454;28;20488;-80
2021/12/15 00:56:05;;;;;;;48.38;18.38;;;;;;;7.07;97.95;102726.88;5036180;28;20024;-80
2021/12/15 00:58:31;;;;;;;44.70;16.48;;;;;;;6.94;97.95;102714.13;5040069;28;20404;-80
2021/12/15 01:01:01;;;;;;;48.80;18.25;;;;;;;6.94;98.09;102728.28;5045330;28;20035;-80
2021/12/15 01:03:29;;;;;;;46.53;18.88;;;;;;;6.95;97.79;102734.44;5034911;28;20028;-80
2021/12/15 01:06:02;;;;;;;40.40;17.15;;;;;;;6.98;98.14;102737.59;5029567;28;20021;-81
2021/12/15 01:08:30;;;;;;;49.28;17.92;;;;;;;6.99;98.58;102735.75;5028204;28;20053;-80
2021/12/15 01:22:08;;;;;;;39.15;17.40;;;;;;;6.96;98.06;102736.94;5044249;28;20392;-80
2021/12/15 01:24:34;;;;;;;37.58;16.33;;;;;;;6.95;97.89;102737.94;5046319;28;20025;-82
2021/12/15 01:26:59;;;;;;;42.97;17.00;;;;;;;6.97;98.21;102741.25;5044556;28;20063;-82
2021/12/15 01:29:25;;;;;;;44.28;18.00;;;;;;;6.96;98.13;102742.25;5048569;28;20021;-82
2021/12/15 01:31:51;;;;;;;39.85;17.55;;;;;;;6.97;98.08;102740.44;5026297;28;20032;-81
2021/12/15 01:34:16;;;;;;;43.80;16.40;;;;;;;6.97;97.95;102738.59;5047557;28;20025;-82
2021/12/15 01:36:42;;;;;;;41.72;17.35;;;;;;;6.96;98.07;102738.78;5042071;28;20036;-81
2021/12/15 01:39:08;;;;;;;40.95;17.15;;;;;;;6.96;98.21;102736.94;5040334;28;20124;-82
2021/12/15 01:41:34;;;;;;;46.80;17.58;;;;;;;7.00;97.98;102744.56;5040855;28;20022;-81
2021/12/15 01:49:22;;;;;;;42.03;16.63;;;;;;;7.02;98.15;102745.25;5043691;28;20074;-81
2021/12/15 01:51:48;;;;;;;40.40;16.70;;;;;;;7.03;97.84;102744.25;5041282;28;20365;-81
2021/12/15 01:54:15;;;;;;;36.25;15.77;;;;;;;7.04;97.98;102740.56;5040113;28;20126;-81
2021/12/15 01:56:41;;;;;;;40.55;17.20;;;;;;;7.05;97.76;102747.56;5052050;28;20503;-81
2021/12/15 01:59:08;;;;;;;41.35;16.90;;;;;;;7.04;97.69;102744.06;5030221;28;20024;-81
2021/12/15 02:01:34;;;;;;;43.92;18.20;;;;;;;7.07;98.19;102751.72;5033145;28;20021;-81
2021/12/15 02:04:00;;;;;;;43.42;17.23;;;;;;;7.08;97.49;102744.53;5046999;28;20082;-81
2021/12/15 02:06:26;;;;;;;41.17;17.27;;;;;;;7.06;97.84;102744.72;5036201;28;20017;-81
2021/12/15 02:08:52;;;;;;;41.90;16.88;;;;;;;7.09;97.67;102748.88;5045086;28;20550;-81
2021/12/15 02:11:19;;;;;;;42.80;18.00;;;;;;;7.10;98.00;102758.53;5025126;28;20029;-81
2021/12/15 02:13:45;;;;;;;40.30;17.80;;;;;;;7.10;97.78;102742.53;5029006;28;20040;-81
2021/12/15 02:16:11;;;;;;;43.78;17.42;;;;;;;7.12;97.72;102745.84;5046484;28;20021;-81
2021/12/15 02:18:42;;;;;;;52.97;20.13;;;;;;;7.13;97.76;102743.00;5047565;28;20682;-81
2021/12/15 02:21:10;;;;;;;47.03;18.05;;;;;;;7.13;97.68;102748.31;5042225;28;20488;-81
2021/12/15 02:23:42;;;;;;;55.90;19.92;;;;;;;7.14;98.13;102746.50;5047637;28;20028;-81
2021/12/15 02:26:13;;;;;;;53.08;19.92;;;;;;;7.15;97.43;102745.47;5045716;28;20100;-81
2021/12/15 02:28:44;;;;;;;47.45;19.65;;;;;;;7.13;97.65;102744.84;5022036;28;20048;-81
2021/12/15 02:31:20;;;;;;;53.17;20.15;;;;;;;7.15;97.44;102746.31;5027554;28;20082;-81
2021/12/15 02:34:05;;;;;;;61.83;19.77;;;;;;;7.14;97.89;102746.50;5044083;28;20504;-81
2021/12/15 02:39:15;;;;;;;61.08;20.80;;;;;;;7.14;97.85;102734.00;5041682;28;20079;-81
2021/12/15 02:41:43;;;;;;;55.63;20.20;;;;;;;7.16;98.08;102733.81;5027371;28;20028;-82
2021/12/15 02:44:16;;;;;;;63.70;20.65;;;;;;;7.16;97.97;102739.16;5038362;28;20021;-82
2021/12/15 02:46:46;;;;;;;72.53;20.88;;;;;;;7.15;98.29;102734.81;5034378;28;20043;-82
2021/12/15 02:49:16;;;;;;;62.45;21.90;;;;;;;7.15;98.79;102732.97;5031420;28;20017;-82
2021/12/15 02:51:43;;;;;;;64.85;21.85;;;;;;;7.15;98.87;102732.16;5027290;28;20060;-82
2021/12/15 02:54:12;;;;;;;63.65;22.02;;;;;;;7.17;98.60;102733.63;5032298;28;20462;-81
2021/12/15 02:56:39;;;;;;;73.03;23.33;;;;;;;7.19;98.66;102736.16;5024418;28;20022;-81
2021/12/15 02:59:07;;;;;;;78.43;22.83;;;;;;;7.16;99.15;102733.81;5042428;28;20924;-81
2021/12/15 03:06:44;;;;;;;89.10;24.70;;;;;;;7.20;98.79;102741.31;5041089;28;20017;-82
2021/12/15 03:17:20;;;;;;;80.60;23.75;;;;;;;7.23;98.91;102740.13;4987552;28;20034;-82
2021/12/15 03:19:46;;;;;;;85.10;24.50;;;;;;;7.22;99.13;102746.44;5018730;28;20144;-82
2021/12/15 03:22:11;;;;;;;89.82;24.13;;;;;;;7.25;99.26;102746.94;5035058;28;20028;-82
2021/12/15 03:24:37;;;;;;;82.10;23.73;;;;;;;7.25;98.95;102751.44;5025212;28;20449;-82
2021/12/15 03:27:08;;;;;;;95.97;24.70;;;;;;;7.25;99.35;102741.59;5029432;28;20509;-82
2021/12/15 03:37:41;;;;;;;75.20;22.58;;;;;;;7.28;99.78;102754.56;5046729;28;20020;-81
2021/12/15 03:40:17;;;;;;;78.32;23.02;;;;;;;7.27;100.00;102746.75;5044586;28;20061;-81
2021/12/15 03:42:46;;;;;;;86.28;23.00;;;;;;;7.33;99.86;102748.69;5045530;28;20124;-82
2021/12/15 03:45:16;;;;;;;87.90;24.23;;;;;;;7.33;99.74;102748.69;5029703;28;20032;-82
2021/12/15 03:47:46;;;;;;;83.57;24.38;;;;;;;7.36;99.52;102750.16;5024977;28;20024;-81
2021/12/15 03:50:17;;;;;;;82.32;25.23;;;;;;;7.37;99.74;102736.69;5029953;28;20116;-82
2021/12/15 03:52:48;;;;;;;88.65;26.58;;;;;;;7.39;99.57;102745.34;5043102;28;20029;-82
2021/12/15 03:55:13;;;;;;;84.95;24.13;;;;;;;7.39;99.77;102749.84;5047549;28;20021;-82
2021/12/15 03:57:39;;;;;;;87.20;23.85;;;;;;;7.40;99.88;102747.00;5042345;28;20024;-81
2021/12/15 04:00:08;;;;;;;79.70;23.23;;;;;;;7.40;99.84;102746.16;5042953;28;20616;-81
2021/12/15 04:02:37;;;;;;;86.03;24.13;;;;;;;7.38;99.77;102748.19;5026292;28;20120;-81
2021/12/15 04:05:04;;;;;;;81.53;23.83;;;;;;;7.39;99.86;102745.34;5042884;28;20021;-82
2021/12/15 04:07:30;;;;;;;82.05;23.02;;;;;;;7.38;99.65;102743.69;5046307;28;20091;-82
2021/12/15 04:09:56;;;;;;;81.72;23.83;;;;;;;7.41;99.68;102739.81;5044449;28;20686;-83
2021/12/15 04:12:22;;;;;;;93.28;25.58;;;;;;;7.38;100.00;102741.00;5029718;28;20049;-83
2021/12/15 04:14:55;;;;;;;92.93;25.25;;;;;;;7.33;100.00;102738.03;5029878;28;20032;-83
2021/12/15 04:17:34;;;;;;;83.50;24.70;;;;;;;7.33;100.00;102737.19;5044802;28;20022;-83
2021/12/15 04:20:05;;;;;;;90.25;24.60;;;;;;;7.32;100.00;102739.03;5031334;28;20033;-82
2021/12/15 04:22:31;;;;;;;91.22;24.58;;;;;;;7.35;100.00;102744.00;5023357;28;20029;-82
2021/12/15 04:24:57;;;;;;;87.50;24.73;;;;;;;7.36;100.00;102735.03;5038034;28;20037;-82
2021/12/15 04:27:23;;;;;;;86.82;24.83;;;;;;;7.39;100.00;102734.66;5031344;28;21837;-83
2021/12/15 04:29:51;;;;;;;88.70;24.50;;;;;;;7.36;100.00;102740.38;5037202;28;20114;-82
2021/12/15 04:32:31;;;;;;;91.70;24.35;;;;;;;7.30;100.00;102730.38;5025656;28;20033;-83
2021/12/15 04:34:57;;;;;;;84.10;24.52;;;;;;;7.31;100.00;102731.22;5015906;28;20130;-83
2021/12/15 04:37:23;;;;;;;84.82;24.65;;;;;;;7.30;100.00;102727.72;5025298;28;20260;-84
2021/12/15 04:39:49;;;;;;;84.22;24.45;;;;;;;7.25;100.00;102724.75;5028956;28;20139;-81
2021/12/15 04:42:18;;;;;;;90.13;25.67;;;;;;;7.29;100.00;102723.41;5029611;28;20041;-82
2021/12/15 04:44:44;;;;;;;93.25;25.33;;;;;;;7.28;100.00;102743.91;5045846;28;20021;-82
2021/12/15 04:47:11;;;;;;;92.68;27.58;;;;;;;7.31;100.00;102748.03;5033472;28;20045;-82
2021/12/15 04:49:48;;;;;;;88.90;23.85;;;;;;;7.34;100.00;102752.19;5033035;28;20432;-82
2021/12/15 04:52:15;;;;;;;91.00;23.50;;;;;;;7.37;100.00;102747.34;5027356;28;20060;-82
2021/12/15 04:54:42;;;;;;;80.40;24.27;;;;;;;7.38;100.00;102753.50;5045022;28;20025;-82
2021/12/15 04:57:08;;;;;;;75.47;23.55;;;;;;;7.40;100.00;102754.16;5032689;28;20080;-82
2021/12/15 04:59:34;;;;;;;90.82;26.42;;;;;;;7.41;100.00;102748.66;5035681;28;20033;-81
2021/12/15 05:02:01;;;;;;;91.65;25.02;;;;;;;7.41;100.00;102756.66;5040484;28;20041;-83
2021/12/15 05:04:26;;;;;;;83.68;24.48;;;;;;;7.40;100.00;102760.31;5040241;28;20024;-83
2021/12/15 05:06:52;;;;;;;85.97;23.77;;;;;;;7.39;100.00;102758.66;5027976;28;20131;-83
2021/12/15 05:09:18;;;;;;;89.95;26.52;;;;;;;7.41;100.00;102759.31;5041259;28;20331;-83
2021/12/15 05:11:47;;;;;;;77.43;23.38;;;;;;;7.44;100.00;102760.78;5030899;28;20025;-82
2021/12/15 05:14:13;;;;;;;85.55;25.40;;;;;;;7.41;100.00;102767.31;5040544;28;20037;-82
2021/12/15 05:16:38;;;;;;;89.55;23.95;;;;;;;7.43;100.00;102767.97;5033001;28;20091;-82
2021/12/15 05:19:04;;;;;;;78.28;24.08;;;;;;;7.43;100.00;102770.63;5035794;28;20029;-82
2021/12/15 05:21:31;;;;;;;91.40;26.00;;;;;;;7.44;100.00;102763.47;5038355;28;20229;-82
2021/12/15 05:24:01;;;;;;;69.18;24.63;;;;;;;7.43;100.00;102765.28;5016156;28;20036;-83
2021/12/15 05:26:30;;;;;;;84.57;23.13;;;;;;;7.44;100.00;102772.28;5033057;28;20416;-84
2021/12/15 05:28:55;;;;;;;85.28;24.40;;;;;;;7.45;100.00;102770.44;5016133;28;20133;-84
2021/12/15 05:31:21;;;;;;;76.90;23.55;;;;;;;7.45;100.00;102778.44;5021472;28;20455;-84
2021/12/15 05:33:47;;;;;;;74.75;22.55;;;;;;;7.45;100.00;102779.28;5031776;28;20025;-84
2021/12/15 05:36:12;;;;;;;78.25;23.05;;;;;;;7.44;100.00;102780.28;5021545;28;20033;-83
2021/12/15 05:38:38;;;;;;;70.88;23.63;;;;;;;7.47;100.00;102787.09;5030897;28;20116;-84
2021/12/15 05:41:03;;;;;;;69.72;22.15;;;;;;;7.46;100.00;102788.13;5020634;28;20024;-84
2021/12/15 05:43:29;;;;;;;69.25;21.55;;;;;;;7.46;100.00;102785.44;5022596;28;20433;-84
2021/12/15 05:45:55;;;;;;;72.47;22.40;;;;;;;7.46;100.00;102788.13;5024214;28;20157;-84
2021/12/15 05:48:21;;;;;;;70.15;21.60;;;;;;;7.47;100.00;102779.09;5033004;28;20088;-84
2021/12/15 05:50:50;;;;;;;65.70;21.60;;;;;;;7.47;100.00;102784.44;5020451;28;20033;-84
2021/12/15 05:53:16;;;;;;;74.65;22.38;;;;;;;7.45;100.00;102781.94;5031284;28;20393;-83
2021/12/15 05:55:43;;;;;;;77.97;22.10;;;;;;;7.43;100.00;102786.63;5015884;28;20061;-81
2021/12/15 05:58:09;;;;;;;75.85;23.63;;;;;;;7.43;100.00;102783.97;5022435;28;20126;-81
2021/12/15 06:00:39;;;;;;;70.55;23.10;;;;;;;7.44;100.00;102784.78;5036240;28;20037;-81
2021/12/15 06:03:05;;;;;;;69.70;22.17;;;;;;;7.44;100.00;102788.28;5033648;28;20557;-81
2021/12/15 06:05:33;;;;;;;63.58;22.33;;;;;;;7.46;100.00;102788.94;5034370;28;20496;-81
2021/12/15 06:07:58;;;;;;;61.50;20.55;;;;;;;7.44;100.00;102793.63;5036695;28;20034;-82
2021/12/15 06:10:27;;;;;;;69.50;21.48;;;;;;;7.44;100.00;102784.78;5024311;28;20041;-84
2021/12/15 06:12:53;;;;;;;71.15;21.83;;;;;;;7.46;100.00;102788.94;5035798;28;20018;-84
2021/12/15 06:15:23;;;;;;;75.57;23.08;;;;;;;7.44;100.00;102787.47;5033127;28;20040;-84
2021/12/15 06:17:56;;;;;;;72.47;21.48;;;;;;;7.44;100.00;102790.97;5034167;28;20072;-83
2021/12/15 06:20:22;;;;;;;69.05;23.33;;;;;;;7.45;100.00;102797.94;5032299;28;20220;-83
2021/12/15 06:22:48;;;;;;;70.13;21.52;;;;;;;7.46;99.93;102793.44;5016989;28;20029;-83
2021/12/15 06:25:14;;;;;;;68.90;22.38;;;;;;;7.43;100.00;102783.97;5033079;28;20032;-83
2021/12/15 06:27:41;;;;;;;61.47;20.75;;;;;;;7.44;100.00;102785.63;5036934;28;20083;-83
2021/12/15 06:30:08;;;;;;;62.05;22.70;;;;;;;7.43;100.00;102778.63;5031892;28;20136;-82
2021/12/15 06:32:34;;;;;;;71.45;22.70;;;;;;;7.45;99.88;102776.63;5036306;28;20659;-82
2021/12/15 06:34:59;;;;;;;66.07;22.80;;;;;;;7.41;100.00;102769.97;5036012;28;20032;-81
2021/12/15 06:37:25;;;;;;;70.25;21.48;;;;;;;7.40;100.00;102770.16;5035011;28;20032;-82
2021/12/15 06:39:51;;;;;;;66.85;21.58;;;;;;;7.42;100.00;102781.47;5022798;28;20142;-84
2021/12/15 06:42:17;;;;;;;79.90;23.38;;;;;;;7.42;100.00;102781.47;5031821;28;20468;-84
2021/12/15 06:44:42;;;;;;;72.15;24.35;;;;;;;7.40;100.00;102776.31;5031405;28;20585;-84
2021/12/15 06:58:24;;;;;;;74.70;23.13;;;;;;;7.43;100.00;102793.81;5035427;28;20259;-82
2021/12/15 07:00:53;;;;;;;62.17;22.52;;;;;;;7.42;100.00;102798.31;5039249;28;20193;-82
2021/12/15 07:03:21;;;;;;;67.60;23.30;;;;;;;7.44;100.00;102801.63;5033374;28;20022;-83
2021/12/15 07:05:47;;;;;;;63.55;21.52;;;;;;;7.47;100.00;102800.44;5024438;28;20480;-81
2021/12/15 07:08:14;;;;;;;67.53;22.13;;;;;;;7.44;100.00;102801.63;5038523;28;20060;-82
2021/12/15 07:10:47;;;;;;;64.85;22.30;;;;;;;7.44;100.00;102803.47;5036160;28;20033;-83
2021/12/15 07:13:15;;;;;;;68.57;21.67;;;;;;;7.48;100.00;102800.25;5029284;28;20032;-83
2021/12/15 07:15:41;;;;;;;63.53;21.73;;;;;;;7.48;100.00;102805.59;5039510;28;20033;-82
2021/12/15 07:18:10;;;;;;;61.20;21.60;;;;;;;7.48;99.94;102802.09;5038506;28;20033;-82
2021/12/15 07:23:15;;;;;;;69.72;23.38;;;;;;;7.49;99.83;102814.41;5040744;28;20021;-85
2021/12/15 07:25:43;;;;;;;70.18;22.35;;;;;;;7.47;100.00;102806.59;5026300;28;20032;-84
2021/12/15 07:28:09;;;;;;;67.78;21.10;;;;;;;7.49;100.00;102815.25;5026330;28;20024;-83
2021/12/15 07:30:37;;;;;;;75.38;23.40;;;;;;;7.48;100.00;102812.75;5036959;28;20441;-83
2021/12/15 07:33:03;;;;;;;66.10;22.50;;;;;;;7.48;100.00;102810.94;5042110;28;20091;-84
2021/12/15 07:35:29;;;;;;;70.80;22.27;;;;;;;7.50;99.88;102811.56;5043342;28;20498;-83
2021/12/15 07:37:55;;;;;;;78.90;24.90;;;;;;;7.51;100.00;102817.75;5039787;28;20312;-84
2021/12/15 07:40:24;;;;;;;76.47;22.98;;;;;;;7.49;100.00;102817.91;5022663;28;20029;-83
2021/12/15 07:43:06;;;;;;;70.30;23.70;;;;;;;7.49;100.00;102828.59;5026023;28;20116;-83
2021/12/15 07:45:36;;;;;;;66.65;22.20;;;;;;;7.51;100.00;102823.06;5040559;28;20029;-84
2021/12/15 07:48:03;;;;;;;78.10;25.48;;;;;;;7.51;100.00;102821.25;5039758;28;20017;-84
2021/12/15 07:50:31;;;;;;;75.25;23.95;;;;;;;7.53;100.00;102819.22;5038802;28;20054;-84
2021/12/15 07:52:57;;;;;;;69.25;23.08;;;;;;;7.56;100.00;102824.22;5023638;28;20033;-82
2021/12/15 07:55:24;;;;;;;70.90;24.08;;;;;;;7.56;100.00;102832.22;5019334;28;20435;-82
2021/12/15 07:57:50;;;;;;;73.38;25.40;;;;;;;7.57;100.00;102828.56;5022189;28;20089;-82
2021/12/15 08:00:16;;;;;;;80.30;23.63;;;;;;;7.57;100.00;102825.88;5038301;28;20037;-82
2021/12/15 08:02:42;;;;;;;71.60;25.60;;;;;;;7.61;100.00;102828.19;5021236;28;20026;-82
2021/12/15 08:05:08;;;;;;;73.78;25.42;;;;;;;7.58;100.00;102840.06;5038400;28;20037;-82
2021/12/15 08:07:34;;;;;;;70.95;24.35;;;;;;;7.63;99.99;102834.19;5020428;28;20393;-83
2021/12/15 08:10:03;;;;;;;74.88;23.90;;;;;;;7.61;100.00;102836.19;5021556;28;20499;-82
2021/12/15 08:12:28;;;;;;;74.45;24.45;;;;;;;7.63;100.00;102842.19;5017654;28;20112;-82
2021/12/15 08:14:55;;;;;;;77.97;25.08;;;;;;;7.65;100.00;102845.50;5032076;28;20471;-82
2021/12/15 08:17:21;;;;;;;70.57;23.88;;;;;;;7.63;100.00;102839.50;5031898;28;20022;-82
2021/12/15 08:19:46;;;;;;;71.38;24.05;;;;;;;7.64;100.00;102851.84;5035553;28;20025;-82
2021/12/15 08:22:12;;;;;;;67.90;23.52;;;;;;;7.64;100.00;102855.34;5017839;28;20023;-83
2021/12/15 08:24:38;;;;;;;65.97;23.00;;;;;;;7.66;100.00;102847.16;5015395;28;20031;-82
2021/12/15 08:27:04;;;;;;;64.90;23.85;;;;;;;7.65;100.00;102854.34;5034479;28;20108;-83
2021/12/15 08:29:29;;;;;;;67.15;23.38;;;;;;;7.67;100.00;102856.81;5031234;28;20255;-82
2021/12/15 08:31:55;;;;;;;60.85;22.05;;;;;;;7.71;100.00;102853.63;5023762;28;20530;-83
2021/12/15 08:34:21;;;;;;;60.75;22.00;;;;;;;7.73;100.00;102858.81;5032278;28;20033;-82
2021/12/15 08:36:50;;;;;;;62.28;22.35;;;;;;;7.73;100.00;102856.13;5022800;28;20519;-83
2021/12/15 08:39:16;;;;;;;64.95;22.13;;;;;;;7.72;100.00;102857.97;5036070;28;20037;-82
2021/12/15 08:41:41;;;;;;;59.13;22.63;;;;;;;7.76;100.00;102861.09;5014148;28;20276;-82
2021/12/15 08:44:08;;;;;;;52.47;19.55;;;;;;;7.76;100.00;102863.78;5031249;28;20416;-83
2021/12/15 08:46:39;;;;;;;60.65;21.25;;;;;;;7.78;100.00;102865.25;5021974;28;20447;-82
2021/12/15 08:49:06;;;;;;;58.10;21.23;;;;;;;7.83;100.00;102864.72;5035173;28;20132;-82
2021/12/15 08:51:34;;;;;;;60.78;22.48;;;;;;;7.84;100.00;102861.88;5016978;28;20385;-83
2021/12/15 08:54:03;;;;;;;64.93;21.77;;;;;;;7.84;100.00;102863.69;5031965;28;20029;-82
2021/12/15 08:56:30;;;;;;;66.53;22.05;;;;;;;7.87;100.00;102864.16;5033193;28;20029;-82
2021/12/15 08:58:56;;;;;;;66.10;21.63;;;;;;;7.90;99.94;102857.66;5017127;28;20509;-82
2021/12/15 09:01:23;;;;;;;59.65;22.13;;;;;;;7.93;100.00;102870.66;5019507;28;20076;-82
2021/12/15 09:03:50;;;;;;;63.97;22.38;;;;;;;7.91;100.00;102872.69;5017730;28;20067;-82
2021/12/15 09:06:16;;;;;;;62.45;23.00;;;;;;;7.95;100.00;102870.47;5031874;28;20554;-82
2021/12/15 09:08:43;;;;;;;62.53;22.65;;;;;;;7.97;100.00;102866.63;5030509;28;20033;-82
2021/12/15 09:11:13;;;;;;;67.47;21.95;;;;;;;7.97;99.65;102865.78;5033312;28;20090;-82
2021/12/15 09:13:40;;;;;;;70.70;24.83;;;;;;;7.96;100.00;102870.28;5031010;28;20025;-82
2021/12/15 09:16:09;;;;;;;66.28;21.45;;;;;;;7.94;100.00;102860.81;5031419;28;20408;-82
2021/12/15 09:18:36;;;;;;;65.22;22.20;;;;;;;7.98;99.93;102862.94;5029854;28;20186;-82
2021/12/15 09:21:03;;;;;;;54.22;21.75;;;;;;;7.99;99.90;102859.25;5020634;28;20029;-82
2021/12/15 09:23:29;;;;;;;64.85;22.23;;;;;;;8.03;99.48;102863.22;5030133;28;20227;-83
2021/12/15 09:25:55;;;;;;;64.32;21.75;;;;;;;7.97;100.00;102858.59;5015373;28;20032;-82
2021/12/15 09:28:20;;;;;;;60.55;21.60;;;;;;;7.99;100.00;102859.25;5021551;28;20025;-83
2021/12/15 09:30:48;;;;;;;64.25;22.95;;;;;;;8.02;100.00;102864.22;5020579;28;20165;-82
2021/12/15 09:33:24;;;;;;;62.83;21.95;;;;;;;8.01;100.00;102862.56;5032418;28;20027;-82
2021/12/15 09:35:51;;;;;;;62.75;23.10;;;;;;;8.07;100.00;102861.00;5032628;28;20452;-83
2021/12/15 09:38:19;;;;;;;57.22;20.58;;;;;;;8.04;100.00;102867.53;5031106;28;20033;-82
2021/12/15 09:40:45;;;;;;;67.03;21.98;;;;;;;8.04;100.00;102867.53;5020021;28;20616;-83
2021/12/15 09:43:12;;;;;;;57.22;20.25;;;;;;;8.07;99.64;102861.84;5014275;28;20086;-83
2021/12/15 09:45:50;;;;;;;48.05;20.38;;;;;;;8.04;100.00;102866.72;5021120;28;20029;-83
2021/12/15 10:12:35;;;;;;;53.75;19.65;;;;;;;8.31;99.58;102846.63;5032488;28;20353;-82
2021/12/15 10:18:15;;;;;;;53.30;20.70;;;;;;;8.31;99.50;102852.81;5030064;28;20475;-82
2021/12/15 10:20:41;;;;;;;58.47;20.00;;;;;;;8.36;99.35;102853.09;5033690;28;20029;-82
2021/12/15 10:23:13;;;;;;;54.83;20.15;;;;;;;8.31;99.36;102852.81;5025927;28;20036;-82
2021/12/15 10:25:44;;;;;;;47.60;18.45;;;;;;;8.39;98.87;102849.25;5033935;28;20052;-82
2021/12/15 10:28:15;;;;;;;53.60;19.70;;;;;;;8.37;99.06;102852.09;5024732;28;20020;-83
2021/12/15 10:30:50;;;;;;;52.20;19.10;;;;;;;8.37;99.18;102851.25;5027522;28;20036;-82
2021/12/15 10:33:16;;;;;;;56.47;20.10;;;;;;;8.36;100.00;102849.59;5023682;28;20028;-82
2021/12/15 10:35:47;;;;;;;54.05;19.40;;;;;;;8.39;100.00;102854.59;5036561;28;20021;-82
2021/12/15 10:38:25;;;;;;;49.85;18.80;;;;;;;8.41;99.59;102847.22;5036402;28;20029;-82
2021/12/15 10:40:53;;;;;;;49.58;18.77;;;;;;;8.42;100.00;102848.88;5035799;28;20347;-82
2021/12/15 10:43:21;;;;;;;45.65;18.38;;;;;;;8.43;99.78;102840.66;5033482;28;20132;-83
2021/12/15 10:45:53;;;;;;;50.47;18.52;;;;;;;8.43;100.00;102845.19;5035859;28;20466;-83
2021/12/15 10:48:37;;;;;;;51.15;17.88;;;;;;;8.47;99.73;102841.16;5023239;28;20029;-84
2021/12/15 10:51:29;;;;;;;48.13;17.65;;;;;;;8.45;99.66;102843.19;5020882;28;20103;-82
2021/12/15 10:53:57;;;;;;;47.58;19.05;;;;;;;8.52;99.47;102843.28;5023460;28;20120;-82
2021/12/15 10:56:28;;;;;;;56.17;20.73;;;;;;;8.49;99.37;102833.78;5020821;28;20200;-82
2021/12/15 10:58:58;;;;;;;51.55;19.40;;;;;;;8.52;99.52;102838.75;5024117;28;20033;-82
2021/12/15 11:01:42;;;;;;;47.72;18.02;;;;;;;8.47;99.96;102841.16;5034453;28;20040;-83
2021/12/15 11:04:20;;;;;;;48.28;18.02;;;;;;;8.49;100.00;102841.81;5032080;28;20540;-83
2021/12/15 11:06:59;;;;;;;52.75;19.55;;;;;;;8.50;99.83;102840.78;5034566;28;20036;-82
2021/12/15 11:09:24;;;;;;;43.97;18.25;;;;;;;8.52;100.00;102840.59;5021706;28;20130;-83
2021/12/15 11:11:59;;;;;;;48.85;18.30;;;;;;;8.50;99.78;102845.31;5023956;28;20703;-82
2021/12/15 11:14:33;;;;;;;45.75;17.80;;;;;;;8.52;99.83;102830.75;5022978;28;20493;-82
2021/12/15 11:17:16;;;;;;;56.03;18.70;;;;;;;8.54;99.49;102830.56;5024455;28;20390;-82
2021/12/15 11:19:41;;;;;;;47.53;17.10;;;;;;;8.59;99.17;102834.34;5033557;28;20083;-82
2021/12/15 11:22:34;;;;;;;46.42;17.17;;;;;;;8.61;99.13;102832.31;5024270;28;20025;-82
2021/12/15 11:25:02;;;;;;;50.22;19.27;;;;;;;8.64;99.08;102833.81;5021600;28;20029;-82
2021/12/15 11:27:28;;;;;;;45.92;18.55;;;;;;;8.66;98.91;102831.78;5024703;28;20075;-82
2021/12/15 11:29:53;;;;;;;47.22;17.80;;;;;;;8.67;99.24;102834.25;5034813;28;20033;-82
2021/12/15 11:32:47;;;;;;;51.53;18.33;;;;;;;8.67;99.10;102831.59;5033150;28;20025;-82
2021/12/15 11:35:24;;;;;;;47.08;18.42;;;;;;;8.71;98.86;102840.88;5031685;28;20033;-82
2021/12/15 11:38:00;;;;;;;48.42;18.63;;;;;;;8.73;99.03;102836.19;5033979;28;20024;-85
2021/12/15 11:40:47;;;;;;;51.22;18.00;;;;;;;8.76;98.84;102837.66;5022677;28;20037;-85
2021/12/15 11:43:40;;;;;;;45.22;18.05;;;;;;;8.76;98.73;102832.31;5034558;28;20085;-85
2021/12/15 11:46:35;;;;;;;43.88;15.80;;;;;;;8.79;98.43;102830.09;5024719;28;20021;-86
2021/12/15 11:49:13;;;;;;;40.72;15.98;;;;;;;8.84;98.55;102826.06;5020505;28;20040;-85
2021/12/15 11:51:45;;;;;;;35.47;16.00;;;;;;;8.84;98.52;102820.69;5019623;28;20034;-85
2021/12/15 11:54:31;;;;;;;43.78;15.80;;;;;;;8.84;98.26;102823.38;5022208;28;20039;-85
2021/12/15 11:57:00;;;;;;;37.85;15.23;;;;;;;8.86;98.27;102826.69;5036709;28;20035;-86
2021/12/15 11:59:33;;;;;;;36.50;15.30;;;;;;;8.86;98.75;102830.19;5040085;28;20033;-83
2021/12/15 12:02:04;;;;;;;36.58;16.67;;;;;;;8.89;98.35;102823.63;5035361;28;20033;-82
2021/12/15 12:04:31;;;;;;;32.25;15.48;;;;;;;8.88;98.55;102824.66;5027339;28;20045;-82
2021/12/15 12:07:10;;;;;;;37.40;15.55;;;;;;;8.90;98.25;102825.28;5024087;28;20095;-82
2021/12/15 12:09:38;;;;;;;31.75;13.48;;;;;;;8.95;98.73;102822.88;5017778;28;20025;-84
2021/12/15 12:12:06;;;;;;;36.70;15.48;;;;;;;8.97;98.47;102823.53;5038014;28;20025;-82
2021/12/15 12:14:40;;;;;;;32.63;14.07;;;;;;;9.02;98.33;102823.81;5031819;28;20658;-82
2021/12/15 12:17:12;;;;;;;31.15;13.95;;;;;;;9.01;98.27;102816.81;5029530;28;20496;-82
2021/12/15 12:19:55;;;;;;;27.02;12.93;;;;;;;9.00;98.01;102815.97;5039486;28;20036;-81
2021/12/15 12:22:24;;;;;;;28.40;13.27;;;;;;;9.02;98.39;102824.66;5030514;28;20115;-83
2021/12/15 12:24:52;;;;;;;25.92;12.07;;;;;;;9.09;98.25;102824.72;5048213;28;20033;-85
2021/12/15 12:27:21;;;;;;;22.15;11.75;;;;;;;9.09;97.65;102830.06;5032833;28;20040;-85
2021/12/15 12:29:47;;;;;;;23.35;11.45;;;;;;;9.07;97.85;102829.41;5036446;28;20107;-83
2021/12/15 12:32:13;;;;;;;21.13;10.60;;;;;;;9.06;97.68;102819.75;5031382;28;20033;-85
2021/12/15 12:34:41;;;;;;;23.30;10.52;;;;;;;9.08;97.51;102818.53;5033679;28;20025;-85
2021/12/15 12:37:07;;;;;;;24.80;11.10;;;;;;;9.08;97.89;102820.38;5044205;28;20030;-86
2021/12/15 12:39:36;;;;;;;25.65;10.98;;;;;;;9.11;97.65;102825.34;5045439;28;20045;-86
2021/12/15 12:42:02;;;;;;;25.77;11.10;;;;;;;9.08;97.38;102820.38;5043486;28;20182;-85
2021/12/15 12:44:40;;;;;;;23.83;10.90;;;;;;;9.11;97.38;102816.50;5029612;28;20025;-85